Terminal Aerodrome Forecast
Issued by NWS

Current Version | Previous Version | Graphics & Text | Print | Product List | Glossary On
Versions: 1 2 3 4 5 6 7 8 9 10 11 12 13 14 15 16 17 18 19 20 21 22
000
FTUS41 KPBZ 160533
TAFHLG
TAF
KHLG 160533Z 1606/1706 23010KT P6SM -DZ OVC005
     FM160700 24010KT P6SM VCSH OVC015
     FM160800 24010KT P6SM BKN035
     FM161100 25012G22KT P6SM OVC015
     FM161500 27015G25KT P6SM BKN025
     FM170000 29010KT P6SM BKN025
     FM170500 30005KT P6SM SCT035=

USA.gov is the U.S. government's official web portal to all federal, state and local government web resources and services.